Terminal Aerodrome Forecast
Issued by NWS

Home | Current Version | Previous Version | Text Only | Print | Product List | Glossary Off
Versions: 1 2 3 4 5 6 7 8 9 10 11 12 13 14 15 16 17 18 19 20

000
FTUS43 KGRB 101143 AAA
TAFATW
TAF AMD
KATW 101143Z 1012/1112 24006KT P6SM BKN060
     FM101500 28007KT P6SM SCT020 BKN035
     FM101800 31009G15KT P6SM BKN035
     FM110000 32004KT P6SM SCT035 BKN250
     FM110900 VRB03KT P6SM SCT025 OVC070
     FM111100 16006KT 2SM -SN OVC015=

USA.gov is the U.S. government's official web portal to all federal, state and local government web resources and services.